Time;durP1;ratioP1;P1;durP2;ratioP2;P2;SDS_P1;SDS_P2;PMS_P1;PMS_P2;Temp;Humidity;BMP_temperature;BMP_pressure;BME280_temperature;BME280_humidity;BME280_pressure;Samples;Min_cycle;Max_cycle;Signal;HPM_P1;HPM_P2
2021/06/23 00:01:52;;;;;;;12.00;5.80;;;;;;;15.87;60.68;101490.22;5037298;28;20415;-67
2021/06/23 00:04:18;;;;;;;10.03;5.70;;;;;;;16.15;60.10;101485.81;5037269;28;20177;-67
2021/06/23 00:06:43;;;;;;;9.53;5.83;;;;;;;16.44;59.53;101492.75;5038123;28;20257;-68
2021/06/23 00:09:09;;;;;;;7.30;5.10;;;;;;;16.55;58.75;101492.72;5037518;28;20178;-67
2021/06/23 00:11:43;;;;;;;10.97;6.03;;;;;;;16.47;59.18;101493.63;5037319;28;20178;-67
2021/06/23 00:14:08;;;;;;;5.73;4.80;;;;;;;16.30;59.36;101491.06;5037640;28;20166;-67
2021/06/23 00:16:34;;;;;;;8.77;5.33;;;;;;;16.33;59.82;101490.16;5040643;28;20469;-67
2021/06/23 00:18:59;;;;;;;7.20;5.50;;;;;;;16.30;59.68;101493.69;5040702;28;20526;-67
2021/06/23 00:21:24;;;;;;;7.17;5.87;;;;;;;16.51;59.04;101497.13;5041315;28;20167;-67
2021/06/23 00:23:50;;;;;;;7.57;5.17;;;;;;;16.24;60.34;101503.34;5040880;28;20189;-67
2021/06/23 00:26:15;;;;;;;6.90;5.13;;;;;;;16.48;59.46;101499.75;5040689;28;20166;-67
2021/06/23 00:28:40;;;;;;;7.40;5.40;;;;;;;16.33;59.81;101498.94;5040978;28;20158;-67
2021/06/23 00:31:06;;;;;;;8.93;5.50;;;;;;;16.55;59.06;101487.47;5050499;28;20435;-67
2021/06/23 00:33:32;;;;;;;10.17;5.57;;;;;;;16.70;59.14;101492.69;5055017;28;20170;-67
2021/06/23 00:35:57;;;;;;;6.93;5.23;;;;;;;16.54;59.78;101488.38;5050797;28;20545;-67
2021/06/23 00:38:23;;;;;;;11.43;8.43;;;;;;;16.77;58.93;101486.50;5059212;28;20524;-67
2021/06/23 00:40:48;;;;;;;8.47;5.63;;;;;;;16.48;59.81;101479.59;5042212;28;20189;-67
2021/06/23 00:43:14;;;;;;;6.03;5.20;;;;;;;16.57;59.43;101470.78;5040340;28;20170;-66
2021/06/23 00:45:39;;;;;;;9.63;5.47;;;;;;;16.56;60.07;101468.16;5039427;28;20166;-67
2021/06/23 00:48:07;;;;;;;10.37;6.60;;;;;;;16.65;59.65;101470.75;5040308;28;20181;-67
2021/06/23 00:50:33;;;;;;;10.13;5.77;;;;;;;16.50;60.22;101471.69;5039496;28;20158;-67
2021/06/23 00:52:58;;;;;;;9.73;6.03;;;;;;;16.88;59.29;101472.44;5039794;28;20435;-68
2021/06/23 00:55:26;;;;;;;6.60;4.90;;;;;;;16.68;59.83;101470.75;5039570;28;20428;-68
2021/06/23 00:57:53;;;;;;;10.27;5.77;;;;;;;16.38;61.00;101472.59;5039909;28;20438;-68
2021/06/23 01:00:20;;;;;;;11.53;5.60;;;;;;;16.56;60.55;101479.59;5039034;28;20460;-68
2021/06/23 01:02:46;;;;;;;10.10;5.60;;;;;;;16.41;61.28;101480.50;5039217;28;20417;-68
2021/06/23 01:05:12;;;;;;;8.30;5.40;;;;;;;16.20;61.92;101485.81;5040302;28;20440;-68
2021/06/23 01:07:38;;;;;;;20.30;12.10;;;;;;;16.57;60.99;101477.81;5039277;28;20424;-68
2021/06/23 01:10:03;;;;;;;13.50;6.87;;;;;;;16.47;61.60;101488.38;5040327;28;20467;-67
2021/06/23 01:13:00;;;;;;;10.83;5.77;;;;;;;16.50;61.25;101483.09;5039799;28;20432;-68
2021/06/23 01:15:26;;;;;;;10.97;8.40;;;;;;;16.74;61.18;101494.44;5039091;28;20171;-68
2021/06/23 01:17:52;;;;;;;8.27;5.83;;;;;;;16.46;62.20;101489.25;5039726;28;20384;-68
2021/06/23 01:20:18;;;;;;;12.50;6.03;;;;;;;16.54;62.28;101478.69;5052267;28;20217;-68
2021/06/23 01:22:43;;;;;;;8.70;6.10;;;;;;;16.49;62.77;101478.72;5059855;28;20836;-68
2021/06/23 01:25:12;;;;;;;15.40;7.70;;;;;;;16.51;63.05;101468.19;5059514;28;20204;-68
2021/06/23 01:27:42;;;;;;;10.80;6.07;;;;;;;16.53;62.87;101468.19;5051308;28;20467;-68
2021/06/23 01:30:09;;;;;;;12.23;7.47;;;;;;;16.77;62.45;101473.34;5039814;28;20385;-68
2021/06/23 01:32:34;;;;;;;12.27;6.57;;;;;;;16.67;62.89;101474.28;5039444;28;20437;-67
2021/06/23 01:35:00;;;;;;;8.87;6.13;;;;;;;16.24;64.36;101483.16;5051416;28;20481;-67
2021/06/23 01:37:25;;;;;;;6.47;5.57;;;;;;;16.43;63.77;101470.84;5059728;28;20165;-68
2021/06/23 01:39:50;;;;;;;15.10;6.27;;;;;;;16.36;63.95;101474.38;5059220;28;20201;-68
2021/06/23 01:42:16;;;;;;;7.70;5.93;;;;;;;16.64;63.33;101462.00;5059278;28;20531;-67
2021/06/23 01:44:41;;;;;;;7.87;5.50;;;;;;;16.54;63.99;101467.31;5059875;28;20196;-67
2021/06/23 01:47:07;;;;;;;8.90;6.40;;;;;;;16.49;64.21;101472.56;5059133;28;20433;-68
2021/06/23 01:49:32;;;;;;;12.50;6.50;;;;;;;16.56;64.07;101476.94;5058335;28;20200;-68
2021/06/23 01:51:57;;;;;;;8.27;6.00;;;;;;;16.52;64.11;101482.22;5059405;28;20416;-68
2021/06/23 01:54:23;;;;;;;8.87;6.10;;;;;;;16.20;65.11;101491.94;5058344;28;20174;-68
2021/06/23 01:56:48;;;;;;;8.07;5.30;;;;;;;16.65;63.85;101483.94;5058912;28;20180;-68
2021/06/23 01:59:14;;;;;;;16.23;6.27;;;;;;;16.52;64.93;101484.84;5059058;28;20201;-69
2021/06/23 02:01:52;;;;;;;11.57;6.33;;;;;;;16.16;65.75;101488.44;5058591;28;20173;-68
2021/06/23 02:04:27;;;;;;;7.97;6.23;;;;;;;16.39;65.16;101492.78;5057351;28;20263;-68
2021/06/23 02:07:05;;;;;;;11.30;6.00;;;;;;;16.39;65.44;101484.88;5058100;28;20784;-67
2021/06/23 02:09:49;;;;;;;10.30;5.47;;;;;;;16.31;65.96;101505.06;5058403;28;20818;-68
2021/06/23 02:12:26;;;;;;;8.50;6.27;;;;;;;16.77;64.81;101506.72;5058729;28;20469;-68
2021/06/23 02:14:53;;;;;;;13.93;6.60;;;;;;;16.72;64.99;101509.34;5058547;28;20404;-67
2021/06/23 02:17:21;;;;;;;10.27;7.17;;;;;;;16.54;65.60;101514.69;5057719;28;20477;-67
2021/06/23 02:19:49;;;;;;;15.30;7.10;;;;;;;16.53;65.70;101515.56;5038100;28;20461;-67
2021/06/23 02:22:17;;;;;;;13.90;6.80;;;;;;;16.65;65.84;101515.50;5038861;28;20419;-67
2021/06/23 02:24:42;;;;;;;13.97;7.17;;;;;;;16.43;66.86;101520.84;5037727;28;20514;-67
2021/06/23 02:27:08;;;;;;;12.47;7.30;;;;;;;16.54;66.47;101519.94;5037711;28;20817;-67
2021/06/23 02:29:33;;;;;;;13.20;7.40;;;;;;;16.65;66.08;101529.53;5039213;28;20159;-68
2021/06/23 02:31:59;;;;;;;9.80;7.13;;;;;;;16.37;67.31;101519.97;5038220;28;20208;-68
2021/06/23 02:34:25;;;;;;;10.40;6.60;;;;;;;16.49;67.62;101523.47;5053606;28;20562;-67
2021/06/23 02:36:51;;;;;;;13.73;7.60;;;;;;;16.66;67.01;101522.53;5058303;28;20467;-67
2021/06/23 02:39:16;;;;;;;12.57;6.77;;;;;;;16.50;67.16;101519.94;5057240;28;20617;-67
2021/06/23 02:41:42;;;;;;;11.73;7.53;;;;;;;16.80;67.03;101523.34;5058083;28;20166;-67
2021/06/23 02:44:07;;;;;;;11.70;6.20;;;;;;;16.57;67.73;101525.19;5058425;28;20169;-67
2021/06/23 02:46:33;;;;;;;14.10;7.87;;;;;;;16.48;67.89;101529.59;5040772;28;20264;-67
2021/06/23 02:48:58;;;;;;;10.80;8.53;;;;;;;15.97;69.37;101519.13;5056275;28;20202;-67
2021/06/23 02:51:25;;;;;;;9.90;8.80;;;;;;;15.99;69.40;101521.75;5057499;28;20170;-67
2021/06/23 02:53:52;;;;;;;14.20;8.47;;;;;;;15.89;69.88;101525.28;5057909;28;20207;-67
2021/06/23 02:56:19;;;;;;;11.90;8.17;;;;;;;15.95;69.62;101520.00;5057830;28;20431;-67
2021/06/23 02:58:44;;;;;;;13.00;8.90;;;;;;;16.03;69.08;101528.78;5058245;28;20691;-67
2021/06/23 03:01:14;;;;;;;11.57;9.20;;;;;;;15.79;69.94;101529.59;5057965;28;20470;-67
2021/06/23 03:03:40;;;;;;;12.70;8.83;;;;;;;15.65;69.81;101537.50;5053394;28;20192;-67
2021/06/23 03:06:07;;;;;;;9.30;8.27;;;;;;;15.47;69.89;101544.47;5047384;28;20379;-67
2021/06/23 03:08:34;;;;;;;14.50;8.40;;;;;;;15.47;70.10;101544.47;5049758;28;20432;-67
2021/06/23 03:10:59;;;;;;;12.33;8.13;;;;;;;15.42;70.02;101548.81;5037702;28;20421;-67
2021/06/23 03:13:24;;;;;;;9.93;7.57;;;;;;;15.75;69.65;101548.88;5037881;28;20649;-67
2021/06/23 03:15:50;;;;;;;12.47;8.27;;;;;;;15.77;68.99;101555.91;5037639;28;20177;-67
2021/06/23 03:18:15;;;;;;;14.90;8.03;;;;;;;15.72;69.04;101555.03;5037863;28;20182;-67
2021/06/23 03:20:40;;;;;;;13.13;8.10;;;;;;;15.85;68.88;101561.22;5037874;28;20174;-66
2021/06/23 03:23:06;;;;;;;12.90;7.87;;;;;;;15.73;69.46;101554.16;5037407;28;20182;-67
2021/06/23 03:25:31;;;;;;;13.17;8.27;;;;;;;15.81;69.23;101559.44;5036846;28;20540;-67
2021/06/23 03:28:00;;;;;;;18.07;9.13;;;;;;;15.79;69.22;101569.94;5037990;28;20543;-68
2021/06/23 03:30:26;;;;;;;15.93;8.40;;;;;;;15.68;68.97;101569.03;5037558;28;20166;-67
2021/06/23 03:32:52;;;;;;;11.30;8.03;;;;;;;15.79;68.70;101575.19;5036836;28;21163;-68
2021/06/23 03:35:22;;;;;;;14.00;7.70;;;;;;;15.54;69.62;101586.53;5036920;28;20622;-68
2021/06/23 03:37:48;;;;;;;10.20;8.00;;;;;;;15.74;69.25;101579.56;5036935;28;20569;-67
2021/06/23 03:40:14;;;;;;;12.47;9.43;;;;;;;15.96;68.28;101588.38;5037561;28;20456;-67
2021/06/23 03:42:39;;;;;;;11.77;7.70;;;;;;;15.86;68.69;101583.09;5037413;28;20383;-68
2021/06/23 03:45:05;;;;;;;14.13;7.33;;;;;;;15.51;69.96;101584.78;5037468;28;20586;-68
2021/06/23 03:47:31;;;;;;;13.50;8.13;;;;;;;15.87;69.31;101582.25;5037828;28;20496;-67
2021/06/23 03:49:56;;;;;;;15.33;7.33;;;;;;;15.47;70.17;101578.63;5038683;28;20444;-67
2021/06/23 03:52:22;;;;;;;11.17;7.43;;;;;;;16.22;68.23;101578.75;5041236;28;20536;-68
2021/06/23 03:54:47;;;;;;;18.50;8.40;;;;;;;16.22;67.45;101584.88;5041169;28;20159;-68
2021/06/23 03:57:12;;;;;;;9.40;7.10;;;;;;;16.25;67.47;101578.75;5041171;28;20180;-68
2021/06/23 03:59:38;;;;;;;12.50;8.17;;;;;;;16.23;67.25;101591.03;5041215;28;20301;-67
2021/06/23 04:02:04;;;;;;;12.00;7.80;;;;;;;16.12;67.66;101591.91;5041604;28;20264;-67
2021/06/23 04:04:29;;;;;;;18.23;11.03;;;;;;;16.16;67.13;101601.53;5041166;28;20475;-67
2021/06/23 04:06:54;;;;;;;12.10;9.10;;;;;;;15.92;68.20;101596.28;5040989;28;20422;-66
2021/06/23 04:09:20;;;;;;;13.13;8.60;;;;;;;16.22;67.30;101586.66;5049246;28;20180;-68
2021/06/23 04:11:45;;;;;;;16.23;11.30;;;;;;;16.26;67.65;101586.63;5060828;28;20166;-67
2021/06/23 04:14:10;;;;;;;15.73;8.90;;;;;;;16.54;66.49;101585.75;5060925;28;20177;-68
2021/06/23 04:16:35;;;;;;;33.80;20.87;;;;;;;16.41;66.76;101588.41;5057666;28;20181;-67
2021/06/23 04:19:01;;;;;;;9.47;8.33;;;;;;;16.48;66.68;101594.50;5040919;28;20590;-67
2021/06/23 04:21:26;;;;;;;12.20;7.07;;;;;;;16.70;66.15;101590.09;5040755;28;20460;-68
2021/06/23 04:23:51;;;;;;;17.70;9.00;;;;;;;16.63;66.04;101593.63;5041098;28;20198;-67
2021/06/23 04:26:17;;;;;;;16.80;10.00;;;;;;;16.54;66.33;101583.13;5040668;28;20174;-68
2021/06/23 04:28:42;;;;;;;24.13;16.50;;;;;;;16.67;66.55;101595.38;5040682;28;20560;-68
2021/06/23 04:31:07;;;;;;;13.43;7.60;;;;;;;16.77;65.88;101583.94;5044308;28;20184;-68
2021/06/23 04:33:33;;;;;;;11.67;8.10;;;;;;;16.56;66.09;101578.72;5050959;28;20571;-67
2021/06/23 04:35:58;;;;;;;16.53;10.43;;;;;;;16.45;66.78;101574.38;5060431;28;20271;-68
2021/06/23 04:38:23;;;;;;;10.90;7.60;;;;;;;17.34;64.87;101567.06;5043691;28;20265;-67
2021/06/23 04:40:49;;;;;;;12.97;7.60;;;;;;;17.10;65.13;101578.59;5040036;28;20282;-68
2021/06/23 04:43:14;;;;;;;10.77;6.70;;;;;;;16.92;65.78;101587.44;5039561;28;20268;-67
2021/06/23 04:45:39;;;;;;;16.07;7.80;;;;;;;16.72;66.55;101590.09;5042390;28;20186;-67
2021/06/23 04:48:05;;;;;;;10.17;7.00;;;;;;;17.08;65.50;101580.38;5060166;28;20173;-67
2021/06/23 04:50:30;;;;;;;14.77;7.30;;;;;;;16.67;67.27;101584.84;5060215;28;20165;-67
2021/06/23 04:52:56;;;;;;;11.87;7.03;;;;;;;16.88;66.28;101583.03;5060153;28;20181;-67
2021/06/23 04:55:21;;;;;;;15.90;6.70;;;;;;;17.30;65.21;101589.91;5056302;28;20196;-67
2021/06/23 04:57:46;;;;;;;24.53;7.53;;;;;;;17.16;64.88;101597.03;5060167;28;20178;-67
2021/06/23 05:00:12;;;;;;;15.00;6.90;;;;;;;16.73;66.79;101605.88;5048033;28;20194;-68
2021/06/23 05:02:38;;;;;;;14.30;8.27;;;;;;;17.10;65.92;101607.56;5049242;28;20422;-68
2021/06/23 05:05:04;;;;;;;18.63;7.63;;;;;;;17.57;64.14;101600.34;5042722;28;20200;-68
2021/06/23 05:07:30;;;;;;;17.37;7.80;;;;;;;16.91;65.78;101604.13;5040399;28;20175;-68
2021/06/23 05:09:55;;;;;;;11.43;6.87;;;;;;;16.89;66.08;101598.88;5039657;28;20481;-67
2021/06/23 05:12:22;;;;;;;10.77;6.53;;;;;;;16.85;66.01;101599.72;5039996;28;20409;-69
2021/06/23 05:14:47;;;;;;;11.83;6.30;;;;;;;17.09;65.46;101593.53;5041547;28;20178;-68
2021/06/23 05:17:13;;;;;;;12.10;6.97;;;;;;;17.30;64.66;101596.97;5040530;28;20505;-67
2021/06/23 05:19:39;;;;;;;10.77;6.90;;;;;;;17.22;65.20;101604.88;5048682;28;20604;-68
2021/06/23 05:22:04;;;;;;;11.60;6.30;;;;;;;17.19;65.61;101611.94;5043846;28;20540;-67
2021/06/23 05:24:33;;;;;;;16.63;6.77;;;;;;;17.42;64.51;101607.44;5058309;28;20181;-67
2021/06/23 05:26:58;;;;;;;17.23;8.20;;;;;;;17.59;64.07;101615.28;5039068;28;20536;-67
2021/06/23 05:29:24;;;;;;;12.40;6.93;;;;;;;17.11;65.24;101618.09;5053577;28;20429;-67
2021/06/23 05:31:49;;;;;;;14.83;6.80;;;;;;;17.32;64.73;101611.88;5040853;28;20186;-67
2021/06/23 05:34:14;;;;;;;11.57;6.83;;;;;;;17.33;64.85;101608.38;5047097;28;20192;-67
2021/06/23 05:36:40;;;;;;;11.23;6.87;;;;;;;18.00;63.05;101608.00;5047723;28;20531;-67
2021/06/23 05:39:05;;;;;;;15.03;6.80;;;;;;;17.43;64.43;101600.44;5038649;28;20210;-68
2021/06/23 05:41:30;;;;;;;14.50;7.30;;;;;;;17.96;63.63;101601.88;5056428;28;20216;-67
2021/06/23 05:43:55;;;;;;;16.10;7.93;;;;;;;18.28;61.64;101610.41;5058537;28;20177;-68
2021/06/23 05:46:21;;;;;;;12.10;7.30;;;;;;;18.12;62.58;101610.56;5062893;28;20256;-68
2021/06/23 05:48:46;;;;;;;8.97;6.43;;;;;;;18.06;62.09;101618.50;5079134;28;20582;-68
2021/06/23 05:51:11;;;;;;;10.20;6.50;;;;;;;17.71;63.31;101621.34;5078735;28;20180;-67
2021/06/23 05:53:37;;;;;;;10.27;6.17;;;;;;;17.41;64.22;101616.22;5061276;28;20174;-67
2021/06/23 05:56:03;;;;;;;12.70;6.90;;;;;;;17.73;63.27;101633.66;5056853;28;20193;-68
2021/06/23 05:58:28;;;;;;;15.00;6.63;;;;;;;17.41;63.83;101620.63;5043719;28;20216;-67
2021/06/23 06:00:54;;;;;;;9.13;6.50;;;;;;;17.48;63.28;101617.97;5039403;28;20793;-68
2021/06/23 06:03:19;;;;;;;11.50;6.80;;;;;;;17.04;65.16;101616.38;5038925;28;20220;-68
2021/06/23 06:05:46;;;;;;;13.30;7.10;;;;;;;17.24;64.44;101618.94;5049360;28;20285;-68
2021/06/23 06:08:12;;;;;;;13.90;6.97;;;;;;;17.60;63.52;101619.66;5048480;28;20216;-67
2021/06/23 06:10:37;;;;;;;9.47;6.50;;;;;;;17.78;62.73;101620.41;5039243;28;20513;-66
2021/06/23 06:13:03;;;;;;;14.33;7.10;;;;;;;18.28;61.65;101618.34;5036830;28;20228;-65
2021/06/23 06:15:29;;;;;;;10.47;6.70;;;;;;;18.07;62.21;101624.66;5047070;28;20193;-68
2021/06/23 06:18:05;;;;;;;13.70;7.50;;;;;;;18.06;62.61;101626.41;5039294;28;20440;-67
2021/06/23 06:20:31;;;;;;;8.30;6.63;;;;;;;18.04;62.61;101622.06;5057154;28;20204;-68
2021/06/23 06:22:56;;;;;;;14.57;8.97;;;;;;;17.81;63.82;101615.16;5077923;28;20408;-68
2021/06/23 06:25:21;;;;;;;15.03;7.73;;;;;;;17.63;63.83;101621.38;5057481;28;20445;-67
2021/06/23 06:27:47;;;;;;;10.93;7.07;;;;;;;17.61;63.99;101626.66;5049005;28;20186;-67
2021/06/23 06:30:12;;;;;;;14.53;9.20;;;;;;;18.18;62.77;101625.44;5040641;28;20583;-67
2021/06/23 06:32:38;;;;;;;21.20;7.93;;;;;;;18.46;61.47;101636.66;5037999;28;20551;-66
2021/06/23 06:35:04;;;;;;;12.83;6.43;;;;;;;18.53;61.16;101637.47;5037751;28;20225;-67
2021/06/23 06:37:29;;;;;;;17.17;8.40;;;;;;;18.55;61.00;101646.28;5048971;28;20172;-67
2021/06/23 06:39:55;;;;;;;11.23;6.73;;;;;;;19.15;58.96;101642.16;5055467;28;20453;-68
2021/06/23 06:42:21;;;;;;;13.03;7.00;;;;;;;19.00;59.20;101643.22;5045148;28;20251;-67
2021/06/23 06:44:46;;;;;;;18.43;9.13;;;;;;;18.85;59.82;101649.50;5054908;28;20185;-67
2021/06/23 06:47:11;;;;;;;14.10;7.10;;;;;;;18.55;60.54;101658.59;5044216;28;20260;-68
2021/06/23 06:49:36;;;;;;;11.10;7.00;;;;;;;18.56;60.28;101663.84;5039780;28;21612;-67
2021/06/23 06:52:02;;;;;;;12.07;7.10;;;;;;;18.69;58.93;101662.84;5045503;28;20333;-67
2021/06/23 06:54:28;;;;;;;12.70;6.80;;;;;;;18.89;58.64;101660.94;5049004;28;20178;-65
2021/06/23 06:56:54;;;;;;;15.43;6.53;;;;;;;18.81;58.49;101669.78;5036601;28;20216;-76
2021/06/23 06:59:19;;;;;;;12.00;6.17;;;;;;;18.47;59.67;101674.53;5038039;28;20752;-72
2021/06/23 07:01:45;;;;;;;13.60;6.90;;;;;;;18.78;58.97;101682.16;5037272;28;20465;-73
2021/06/23 07:04:11;;;;;;;12.30;6.70;;;;;;;19.48;56.89;101669.09;5045164;28;20215;-72
2021/06/23 07:06:37;;;;;;;14.17;7.40;;;;;;;19.43;57.26;101662.97;5056489;28;20820;-70
2021/06/23 07:09:02;;;;;;;9.87;6.13;;;;;;;19.30;58.29;101660.47;5055804;28;20410;-73
2021/06/23 07:11:28;;;;;;;12.00;7.00;;;;;;;19.95;56.73;101656.16;5049958;28;20205;-67
2021/06/23 07:13:53;;;;;;;10.63;6.60;;;;;;;19.50;57.45;101652.31;5057642;28;20558;-69
2021/06/23 07:16:19;;;;;;;10.40;5.60;;;;;;;19.57;56.96;101655.75;5054199;28;20281;-70
2021/06/23 07:18:45;;;;;;;11.43;6.40;;;;;;;20.05;55.39;101646.28;5057160;28;20235;-68
2021/06/23 07:21:16;;;;;;;9.73;5.83;;;;;;;20.38;53.67;101654.56;5056107;28;20165;-68
2021/06/23 07:23:41;;;;;;;7.53;5.17;;;;;;;20.70;53.42;101648.75;5045499;28;20482;-69
2021/06/23 07:26:06;;;;;;;7.43;5.00;;;;;;;20.57;53.02;101647.22;5058830;28;20468;-69
2021/06/23 07:28:49;;;;;;;9.57;5.10;;;;;;;22.23;49.05;101640.25;5061516;28;20523;-69
2021/06/23 07:31:22;;;;;;;10.40;4.80;;;;;;;23.54;45.99;101634.06;5058662;28;20210;-68
2021/06/23 07:33:53;;;;;;;7.23;4.77;;;;;;;25.78;41.58;101641.44;5055069;28;20500;-69
2021/06/23 07:39:19;;;;;;;6.37;4.10;;;;;;;26.62;38.21;101632.66;5044231;28;20514;-69
2021/06/23 07:41:47;;;;;;;10.10;4.23;;;;;;;24.69;41.89;101628.59;5038378;28;20750;-70
2021/06/23 07:44:14;;;;;;;7.37;4.70;;;;;;;25.39;39.69;101631.38;5060883;28;20507;-69
2021/06/23 07:46:53;;;;;;;7.00;4.00;;;;;;;26.17;37.76;101632.75;5061306;28;20420;-69
2021/06/23 07:49:19;;;;;;;7.30;4.47;;;;;;;27.87;34.82;101617.09;5054092;28;20467;-70
2021/06/23 07:51:59;;;;;;;6.90;4.27;;;;;;;26.57;36.83;101638.19;5043019;28;20699;-68
2021/06/23 07:54:43;;;;;;;10.97;5.10;;;;;;;25.34;39.59;101638.69;5053564;28;20508;-69
2021/06/23 08:02:52;;;;;;;7.57;4.33;;;;;;;27.25;35.57;101651.25;5052398;28;20880;-67
2021/06/23 08:08:12;;;;;;;6.40;4.13;;;;;;;23.70;43.30;101654.88;5055882;28;20540;-66
2021/06/23 08:13:04;;;;;;;7.60;4.53;;;;;;;22.42;46.59;101680.53;5072369;28;20518;-65
2021/06/23 08:15:32;;;;;;;8.87;5.03;;;;;;;21.55;48.06;101671.00;5080881;28;20406;-66
2021/06/23 08:17:58;;;;;;;9.80;5.63;;;;;;;21.95;47.15;101671.91;5060942;28;20448;-66
2021/06/23 08:20:24;;;;;;;7.37;4.30;;;;;;;21.33;48.49;101678.50;5053619;28;20517;-68
2021/06/23 08:22:50;;;;;;;6.87;4.80;;;;;;;21.83;47.04;101678.34;5060519;28;20397;-67
2021/06/23 08:25:16;;;;;;;6.40;4.70;;;;;;;22.14;47.13;101683.81;5057849;28;20743;-67
2021/06/23 08:27:41;;;;;;;8.77;4.67;;;;;;;22.49;45.50;101676.81;5052105;28;20567;-66
2021/06/23 08:30:08;;;;;;;8.73;5.27;;;;;;;21.56;47.18;101672.75;5055027;28;20432;-67
2021/06/23 08:32:34;;;;;;;6.50;4.40;;;;;;;20.91;49.68;101675.78;5040314;28;20198;-67
2021/06/23 08:34:59;;;;;;;8.50;4.37;;;;;;;21.49;48.35;101674.63;5039506;28;20461;-68
2021/06/23 08:37:24;;;;;;;11.80;4.40;;;;;;;21.56;48.86;101686.00;5040011;28;20174;-67
2021/06/23 08:39:50;;;;;;;8.43;5.17;;;;;;;21.48;49.60;101680.81;5040199;28;20517;-66
2021/06/23 08:42:15;;;;;;;7.43;4.70;;;;;;;21.46;49.90;101681.75;5048193;28;20209;-66
2021/06/23 08:44:40;;;;;;;6.97;4.57;;;;;;;21.78;49.25;101681.09;5057928;28;20297;-67
2021/06/23 08:47:06;;;;;;;7.70;5.20;;;;;;;21.99;48.92;101668.28;5048398;28;20189;-66
2021/06/23 08:49:32;;;;;;;6.10;4.50;;;;;;;22.28;47.91;101677.31;5046288;28;20184;-66
2021/06/23 08:51:57;;;;;;;8.83;5.27;;;;;;;22.94;46.58;101662.34;5058760;28;20491;-67
2021/06/23 08:54:25;;;;;;;7.23;4.67;;;;;;;23.14;45.55;101661.81;5059939;28;20594;-65
2021/06/23 08:56:51;;;;;;;6.23;4.60;;;;;;;23.19;44.81;101667.00;5040630;28;20412;-66
2021/06/23 08:59:16;;;;;;;8.00;4.87;;;;;;;22.48;47.51;101679.50;5044787;28;20445;-66
2021/06/23 09:01:42;;;;;;;7.67;4.83;;;;;;;21.91;47.83;101678.19;5040831;28;20494;-66
2021/06/23 09:04:12;;;;;;;8.07;4.80;;;;;;;21.35;49.23;101669.59;5040969;28;20577;-67
2021/06/23 09:06:45;;;;;;;6.83;4.90;;;;;;;21.37;50.37;101681.03;5050023;28;20869;-66
2021/06/23 09:09:30;;;;;;;6.70;4.60;;;;;;;20.49;51.81;101674.69;5046558;28;20481;-67
2021/06/23 09:11:57;;;;;;;7.90;5.40;;;;;;;21.70;49.81;101675.97;5056310;28;20591;-66
2021/06/23 09:14:25;;;;;;;6.97;4.57;;;;;;;21.35;50.59;101677.56;5079458;28;20414;-66
2021/06/23 09:17:10;;;;;;;7.47;4.50;;;;;;;21.36;49.33;101673.13;5049579;28;20850;-67
2021/06/23 09:19:47;;;;;;;6.80;4.53;;;;;;;21.77;48.29;101676.72;5039124;28;20569;-67
2021/06/23 09:22:36;;;;;;;5.47;4.23;;;;;;;24.05;43.22;101674.22;5040862;28;20436;-66
2021/06/23 09:25:22;;;;;;;6.60;4.30;;;;;;;24.54;41.23;101682.38;5058783;28;20420;-66
2021/06/23 09:27:56;;;;;;;8.27;4.73;;;;;;;23.85;44.04;101680.13;5059228;28;20412;-67
2021/06/23 09:30:41;;;;;;;6.80;4.23;;;;;;;23.48;43.87;101681.28;5057161;28;20432;-67
2021/06/23 09:33:17;;;;;;;7.27;4.80;;;;;;;23.49;44.08;101678.56;5058256;28;20454;-67
2021/06/23 09:35:57;;;;;;;6.33;4.70;;;;;;;23.12;44.99;101678.72;5058477;28;20472;-67
2021/06/23 09:38:33;;;;;;;5.50;4.37;;;;;;;25.13;40.63;101667.91;5039155;28;20507;-68
2021/06/23 09:41:03;;;;;;;11.00;4.77;;;;;;;26.88;36.84;101668.97;5038575;28;20435;-69
2021/06/23 09:43:41;;;;;;;6.43;4.60;;;;;;;27.75;34.45;101670.41;5056184;28;20710;-68
2021/06/23 09:46:19;;;;;;;4.17;3.80;;;;;;;27.66;33.65;101661.00;5053863;28;20448;-67
2021/06/23 09:48:46;;;;;;;5.63;4.07;;;;;;;26.12;36.66;101665.94;5043851;28;20818;-67
2021/06/23 09:51:13;;;;;;;9.07;4.17;;;;;;;27.22;35.08;101663.00;5037554;28;20417;-66
2021/06/23 09:53:39;;;;;;;6.23;4.63;;;;;;;27.88;34.20;101660.84;5038164;28;20409;-66
2021/06/23 09:56:24;;;;;;;5.30;3.93;;;;;;;26.42;35.63;101662.94;5038449;28;20832;-67
2021/06/23 09:58:52;;;;;;;9.47;4.47;;;;;;;26.16;36.72;101671.09;5038147;28;20567;-67
2021/06/23 10:01:17;;;;;;;5.40;4.40;;;;;;;25.57;38.34;101668.97;5037433;28;20486;-69
2021/06/23 10:04:08;;;;;;;5.60;3.90;;;;;;;26.88;35.42;101652.94;5038197;28;20417;-68
2021/06/23 10:06:38;;;;;;;5.30;3.73;;;;;;;27.05;33.71;101649.50;5037903;28;20176;-66
2021/06/23 10:09:27;;;;;;;6.87;4.10;;;;;;;26.50;34.64;101644.75;5056288;28;20440;-65
2021/06/23 10:12:02;;;;;;;6.37;3.93;;;;;;;29.12;30.49;101644.72;5063947;28;20415;-67
2021/06/23 10:14:30;;;;;;;4.20;3.73;;;;;;;29.51;29.97;101627.38;5076911;28;20884;-67
2021/06/23 10:16:57;;;;;;;6.50;3.70;;;;;;;28.58;31.49;101634.13;5067348;28;20477;-67
2021/06/23 10:19:22;;;;;;;5.57;3.93;;;;;;;27.45;31.94;101645.00;5037815;28;20555;-67
2021/06/23 10:21:48;;;;;;;6.07;3.83;;;;;;;26.62;34.05;101646.88;5047876;28;20528;-67
2021/06/23 10:24:15;;;;;;;7.20;4.30;;;;;;;26.25;35.70;101645.81;5051443;28;20189;-66
2021/06/23 10:26:51;;;;;;;7.87;4.47;;;;;;;24.51;40.01;101653.19;5057674;28;20177;-67
2021/06/23 10:29:22;;;;;;;5.70;4.50;;;;;;;25.81;38.32;101651.97;5057868;28;20777;-67
2021/06/23 10:31:48;;;;;;;4.80;4.23;;;;;;;25.57;36.09;101652.97;5050724;28;20452;-68
2021/06/23 10:34:16;;;;;;;4.73;4.20;;;;;;;26.12;34.90;101641.91;5037239;28;20840;-67
2021/06/23 10:36:43;;;;;;;5.10;3.90;;;;;;;25.30;36.44;101645.03;5037660;28;20226;-68
2021/06/23 10:39:08;;;;;;;6.40;5.77;;;;;;;26.34;34.61;101645.38;5037760;28;20545;-68
2021/06/23 10:41:38;;;;;;;7.17;5.40;;;;;;;25.88;36.37;101652.59;5037915;28;20516;-67
2021/06/23 10:44:17;;;;;;;6.83;4.53;;;;;;;25.07;36.66;101649.44;5037598;28;20180;-68
2021/06/23 10:46:44;;;;;;;7.20;4.73;;;;;;;26.76;34.20;101643.63;5037680;28;20417;-68
2021/06/23 10:49:10;;;;;;;5.57;4.50;;;;;;;25.40;36.66;101646.47;5047067;28;20440;-68
2021/06/23 10:51:36;;;;;;;6.77;4.27;;;;;;;25.25;37.00;101644.34;5053221;28;20850;-68
2021/06/23 10:54:27;;;;;;;6.53;4.70;;;;;;;23.93;38.74;101656.84;5037702;28;20467;-67
2021/06/23 10:56:53;;;;;;;10.50;4.60;;;;;;;23.71;39.51;101657.47;5044563;28;20186;-67
2021/06/23 10:59:35;;;;;;;10.97;4.93;;;;;;;24.66;40.05;101658.00;5054973;28;20474;-66
2021/06/23 11:02:11;;;;;;;5.93;4.40;;;;;;;23.58;41.83;101663.22;5040728;28;20502;-67
2021/06/23 11:05:01;;;;;;;8.73;5.30;;;;;;;23.43;42.48;101673.41;5047652;28;20549;-67
2021/06/23 11:07:33;;;;;;;7.10;4.80;;;;;;;23.72;41.37;101674.34;5047818;28;20828;-67
2021/06/23 11:10:16;;;;;;;8.67;5.23;;;;;;;23.90;40.71;101672.06;5051083;28;20744;-67
2021/06/23 11:12:51;;;;;;;7.10;5.20;;;;;;;25.26;37.96;101670.09;5054213;28;20463;-68
2021/06/23 11:15:27;;;;;;;8.83;5.37;;;;;;;26.32;35.16;101678.50;5038522;28;20852;-68
2021/06/23 11:17:55;;;;;;;9.67;6.87;;;;;;;25.43;36.37;101672.19;5057291;28;20514;-67
2021/06/23 11:20:20;;;;;;;6.40;5.63;;;;;;;25.62;36.56;101677.69;5056691;28;20471;-66
2021/06/23 11:22:49;;;;;;;7.47;5.00;;;;;;;24.61;38.52;101675.06;5049712;28;20436;-67
2021/06/23 11:25:23;;;;;;;8.37;5.23;;;;;;;24.26;39.68;101679.78;5037311;28;20305;-68
2021/06/23 11:28:07;;;;;;;6.47;4.77;;;;;;;23.80;40.44;101688.28;5038686;28;20498;-69
2021/06/23 11:30:32;;;;;;;6.90;5.00;;;;;;;23.70;40.39;101681.47;5037311;28;20408;-68
2021/06/23 11:33:26;;;;;;;6.97;5.30;;;;;;;23.11;41.58;101685.81;5040236;28;20440;-68
2021/06/23 11:35:52;;;;;;;48.77;17.00;;;;;;;23.32;43.00;101691.47;5037721;28;20226;-67
2021/06/23 11:38:17;;;;;;;12.23;6.77;;;;;;;23.94;40.82;101684.34;5042430;28;20439;-68
2021/06/23 11:40:42;;;;;;;10.20;6.57;;;;;;;23.24;41.86;101688.16;5044518;28;20252;-67